»·PEaware :: SWA3583 KSJC-KBUR

SWA3583 :: KSJC-KBUR

FLIGHT INFORMATION

Flight Status: Arrived
Operator:
Southwest Airlines
More flights by this operator :: More flights under this callsign
Pilot: Cody B. (17747)
Aircraft: BOEING 737-800
(B738)
More flights by this aircraft type
Origin: KSJC Mineta San Jose Intl
United States
Destination: KBUR Bob Hope-Burbank
United States
More flights between these airports :: More routes between these airports
Route: +TECKY3 EBAYE BURGL HONZK ROKKR2
File this flight plan on PilotEdge
Remarks:
Altitude:
(Current/Filed)
29,000ft
Speed:
(Current/Filed)
430kts
Departed: 06-Oct-18 01:51 PM
Arrived: 06-Oct-18 02:35 PM
Distance/Time
Traveled:
258nm/0:44
Distance/Time
To Go:
Arrived

Flight Plot

Page will automatically refresh every two minutes.

Flight plan parsing failed; only flown route is shown


Map Options




Map Legend


Flown Route
Filed Route
Departure Airport
Arrival Airport
Navaid (VOR, NDB)
Fix

Horizontal Profiles

Position Reports

Time Latitude Longitude Heading Altitude Ground
Speed
06-Oct-18 13:34 37.364621 -121.925008 47 70ft 0kts
06-Oct-18 13:35 37.364621 -121.925008 47 70ft 0kts
06-Oct-18 13:36 37.364621 -121.925008 47 70ft 0kts
06-Oct-18 13:37 37.364621 -121.925008 47 70ft 0kts
06-Oct-18 13:38 37.364621 -121.925008 47 70ft 0kts
06-Oct-18 13:39 37.364621 -121.925008 47 70ft 0kts
06-Oct-18 13:40 37.364455 -121.925237 47 70ft 2kts
06-Oct-18 13:41 37.364233 -121.925797 125 70ft 2kts
06-Oct-18 13:42 37.364312 -121.925886 138 70ft 0kts
06-Oct-18 13:43 37.364312 -121.925886 138 70ft 0kts
06-Oct-18 13:44 37.364300 -121.925872 138 70ft 1kts
06-Oct-18 13:45 37.363750 -121.925274 139 70ft 5kts
06-Oct-18 13:46 37.361952 -121.923283 139 70ft 13kts
06-Oct-18 13:47 37.358526 -121.919548 139 70ft 22kts
06-Oct-18 13:48 37.354429 -121.915059 138 70ft 17kts
06-Oct-18 13:49 37.353001 -121.914571 227 70ft 0kts
06-Oct-18 13:50 37.353001 -121.914571 227 70ft 0kts
06-Oct-18 13:51 37.352965 -121.914621 227 70ft 1kts
06-Oct-18 13:52 37.353000 -121.916081 316 70ft 10kts
06-Oct-18 13:53 37.362537 -121.926499 318 70ft 131kts
06-Oct-18 13:54 37.393194 -121.945985 24 1691ft 162kts
06-Oct-18 13:55 37.388695 -121.892814 123 3602ft 216kts
06-Oct-18 13:56 37.350741 -121.826672 123 4996ft 284kts
06-Oct-18 13:57 37.300642 -121.754991 136 6695ft 298kts
06-Oct-18 13:58 37.239759 -121.686925 134 9864ft 313kts
06-Oct-18 13:59 37.170660 -121.608725 135 12122ft 357kts
06-Oct-18 14:00 37.095433 -121.523949 134 14802ft 378kts
06-Oct-18 14:01 37.014372 -121.435253 136 17261ft 399kts
06-Oct-18 14:02 36.929912 -121.345520 137 19529ft 416kts
06-Oct-18 14:03 36.845141 -121.255374 136 21478ft 431kts
06-Oct-18 14:04 36.752574 -121.157259 137 23315ft 447kts
06-Oct-18 14:05 36.655947 -121.055215 137 24982ft 464kts
06-Oct-18 14:06 36.555911 -120.951528 139 26504ft 479kts
06-Oct-18 14:07 36.451226 -120.845432 139 27955ft 493kts
06-Oct-18 14:08 36.344279 -120.737255 139 28950ft 509kts
06-Oct-18 14:09 36.231539 -120.623622 139 28962ft 537kts
06-Oct-18 14:10 36.114207 -120.505846 139 28968ft 547kts
06-Oct-18 14:11 35.996274 -120.387896 139 28960ft 547kts
06-Oct-18 14:12 35.883612 -120.275492 139 28940ft 546kts
06-Oct-18 14:13 35.758346 -120.179773 145 28947ft 547kts
06-Oct-18 14:14 35.627382 -120.087642 161 28964ft 544kts
06-Oct-18 14:15 35.485342 -120.025953 161 28953ft 545kts
06-Oct-18 14:16 35.345642 -119.962623 162 28929ft 516kts
06-Oct-18 14:17 35.211681 -119.902136 162 28904ft 524kts
06-Oct-18 14:18 35.080406 -119.829242 143 27911ft 509kts
06-Oct-18 14:19 34.975165 -119.721242 138 25542ft 489kts
06-Oct-18 14:20 34.881514 -119.625585 140 23276ft 464kts
06-Oct-18 14:21 34.805638 -119.515188 125 20871ft 434kts
06-Oct-18 14:22 34.732701 -119.404948 126 18393ft 416kts
06-Oct-18 14:23 34.669152 -119.308254 126 16059ft 389kts
06-Oct-18 14:24 34.611737 -119.205477 118 13480ft 391kts
06-Oct-18 14:25 34.556885 -119.094129 121 11112ft 381kts
06-Oct-18 14:26 34.483748 -119.014157 144 10169ft 339kts
06-Oct-18 14:27 34.414003 -118.948243 143 9487ft 291kts
06-Oct-18 14:28 34.352137 -118.885289 140 8648ft 295kts
06-Oct-18 14:29 34.292938 -118.819744 141 7492ft 289kts
06-Oct-18 14:30 34.249758 -118.742650 115 7003ft 266kts
06-Oct-18 14:31 34.223186 -118.663472 117 6501ft 248kts
06-Oct-18 14:32 34.202063 -118.604264 109 5183ft 226kts
06-Oct-18 14:33 34.199093 -118.532451 92 3578ft 214kts
06-Oct-18 14:34 34.200170 -118.471278 96 2462ft 162kts
06-Oct-18 14:35 34.199224 -118.421059 98 1613ft 135kts
06-Oct-18 14:36 34.198068 -118.374179 93 931ft 145kts
06-Oct-18 14:37 34.197664 -118.354738 112 785ft 2kts
06-Oct-18 14:38 34.197193 -118.353405 92 785ft 3kts
06-Oct-18 14:39 34.197226 -118.352292 90 785ft 5kts
06-Oct-18 14:40 34.197151 -118.351601 133 785ft 0kts
06-Oct-18 14:41 34.196842 -118.351508 177 785ft 0kts
06-Oct-18 14:42 34.196842 -118.351508 177 785ft 0kts
06-Oct-18 14:43 34.196842 -118.351508 177 785ft 0kts
06-Oct-18 14:44 34.196842 -118.351508 177 785ft 0kts
06-Oct-18 14:45 34.196842 -118.351508 177 785ft 0kts

Navigation Log

Ident Type
Flight plan parsing failed, navigation log unavailable